createdAt,value
2022-12-27T00:01:23.110Z,0.53
2022-12-27T00:03:49.722Z,0.53
2022-12-27T00:06:21.135Z,0.55
2022-12-27T00:08:48.278Z,0.51
2022-12-27T00:11:18.215Z,0.46
2022-12-27T00:13:45.287Z,0.49
2022-12-27T00:16:14.453Z,0.37
2022-12-27T00:18:41.560Z,0.30
2022-12-27T00:21:10.534Z,0.29
2022-12-27T00:23:42.691Z,0.29
2022-12-27T00:26:40.945Z,0.27
2022-12-27T00:29:07.868Z,0.39
2022-12-27T00:31:34.571Z,0.38
2022-12-27T00:34:03.641Z,0.49
2022-12-27T00:36:31.477Z,0.49
2022-12-27T00:39:00.405Z,0.53
2022-12-27T00:41:27.341Z,0.57
2022-12-27T00:43:54.001Z,0.58
2022-12-27T00:46:20.625Z,0.65
2022-12-27T00:48:47.638Z,0.70
2022-12-27T00:51:19.882Z,0.70
2022-12-27T00:53:47.645Z,0.67
2022-12-27T00:56:20.572Z,0.63
2022-12-27T00:58:47.361Z,0.60
2022-12-27T01:01:22.193Z,0.40
2022-12-27T01:03:48.957Z,0.48
2022-12-27T01:06:21.568Z,0.51
2022-12-27T01:08:48.947Z,0.56
2022-12-27T01:11:16.844Z,0.56
2022-12-27T01:13:44.429Z,0.50
2022-12-27T01:16:12.358Z,0.54
2022-12-27T01:18:38.981Z,0.57
2022-12-27T01:21:10.079Z,0.68
2022-12-27T01:23:37.996Z,0.69
2022-12-27T01:26:08.614Z,0.69
2022-12-27T01:28:35.352Z,0.75
2022-12-27T01:31:10.961Z,0.69
2022-12-27T01:33:37.512Z,0.64
2022-12-27T01:36:18.269Z,0.59
2022-12-27T01:38:45.200Z,0.46
2022-12-27T01:41:54.274Z,0.43
2022-12-27T01:44:51.753Z,0.55
2022-12-27T01:47:49.070Z,0.50
2022-12-27T01:50:21.904Z,0.45
2022-12-27T01:53:00.608Z,0.47
2022-12-27T01:55:27.097Z,0.28
2022-12-27T01:57:58.690Z,0.27
2022-12-27T02:00:25.379Z,0.24
2022-12-27T02:02:52.777Z,0.27
2022-12-27T02:05:21.080Z,0.26
2022-12-27T02:07:53.365Z,0.23
2022-12-27T02:10:20.855Z,0.23
2022-12-27T02:12:47.628Z,0.19
2022-12-27T02:15:14.243Z,0.19
2022-12-27T02:17:40.788Z,0.23
2022-12-27T02:20:11.477Z,0.26
2022-12-27T02:22:59.624Z,0.27
2022-12-27T02:25:44.869Z,0.32
2022-12-27T02:28:33.159Z,0.36
2022-12-27T02:31:07.110Z,0.41
2022-12-27T02:33:41.172Z,0.46
2022-12-27T02:36:12.515Z,0.43
2022-12-27T02:38:48.155Z,0.42
2022-12-27T02:41:34.820Z,0.40
2022-12-27T02:44:20.110Z,0.47
2022-12-27T02:47:07.102Z,0.47
2022-12-27T02:50:01.004Z,0.56
2022-12-27T02:53:03.940Z,0.60
2022-12-27T02:56:11.138Z,0.51
2022-12-27T02:59:10.719Z,0.65
2022-12-27T03:02:17.876Z,0.71
2022-12-27T03:04:47.218Z,0.71
2022-12-27T03:07:32.749Z,0.74
2022-12-27T03:10:21.057Z,0.72
2022-12-27T03:13:14.842Z,0.73
2022-12-27T03:15:57.884Z,0.66
2022-12-27T03:18:43.230Z,0.73
2022-12-27T03:21:31.575Z,0.75
2022-12-27T03:24:18.218Z,0.76
2022-12-27T03:26:49.086Z,0.76
2022-12-27T03:29:38.500Z,0.80
2022-12-27T03:32:27.669Z,0.80
2022-12-27T03:35:24.942Z,0.83
2022-12-27T03:38:03.665Z,0.84
2022-12-27T03:41:03.958Z,0.89
2022-12-27T03:43:31.368Z,0.88
2022-12-27T03:46:34.577Z,0.92
2022-12-27T03:49:36.525Z,0.91
2022-12-27T03:52:23.008Z,0.91
2022-12-27T03:54:51.948Z,0.86
2022-12-27T03:57:22.422Z,0.90
2022-12-27T03:59:49.424Z,0.94
2022-12-27T04:02:16.692Z,0.94
2022-12-27T04:04:43.414Z,1.03
2022-12-27T04:07:13.157Z,1.06
2022-12-27T04:09:58.277Z,1.01
2022-12-27T04:12:43.363Z,0.96
2022-12-27T04:15:28.910Z,0.90
2022-12-27T04:18:14.105Z,0.89
2022-12-27T04:20:59.473Z,0.95
2022-12-27T04:23:44.594Z,0.90
2022-12-27T04:26:29.786Z,0.90
2022-12-27T04:29:15.503Z,0.91
2022-12-27T04:32:00.721Z,0.85
2022-12-27T04:34:43.792Z,0.84
2022-12-27T04:37:19.454Z,0.84
2022-12-27T04:40:06.299Z,0.89
2022-12-27T04:42:51.508Z,0.85
2022-12-27T04:45:36.330Z,0.85
2022-12-27T04:48:22.012Z,0.85
2022-12-27T04:51:07.219Z,0.83
2022-12-27T04:53:52.552Z,0.76
2022-12-27T04:56:19.074Z,0.75
2022-12-27T04:59:04.328Z,0.67
2022-12-27T05:01:49.597Z,0.70
2022-12-27T05:04:16.555Z,0.75
2022-12-27T05:06:43.211Z,0.83
2022-12-27T05:09:28.294Z,0.85
2022-12-27T05:12:13.423Z,0.76
2022-12-27T05:14:39.918Z,0.67
2022-12-27T05:17:06.490Z,0.69
2022-12-27T05:19:33.102Z,0.59
2022-12-27T05:22:18.037Z,0.59
2022-12-27T05:25:03.171Z,0.61
2022-12-27T05:27:29.718Z,0.63
2022-12-27T05:29:56.253Z,0.61
2022-12-27T05:32:22.820Z,0.61
2022-12-27T05:34:49.364Z,0.59
2022-12-27T05:37:15.962Z,0.58
2022-12-27T05:39:42.668Z,0.59
2022-12-27T05:42:09.239Z,0.52
2022-12-27T05:44:35.824Z,0.58
2022-12-27T05:47:02.535Z,0.55
2022-12-27T05:49:29.094Z,0.60
2022-12-27T05:51:55.634Z,0.58
2022-12-27T05:54:22.299Z,0.57
2022-12-27T05:56:49.000Z,0.59
2022-12-27T05:59:15.599Z,0.58
2022-12-27T06:01:42.875Z,0.70
2022-12-27T06:04:10.471Z,0.64
2022-12-27T06:06:36.983Z,0.61
2022-12-27T06:09:03.601Z,0.57
2022-12-27T06:11:30.278Z,0.47
2022-12-27T06:13:56.929Z,0.57
2022-12-27T06:16:23.679Z,0.55
2022-12-27T06:18:50.406Z,0.54
2022-12-27T06:21:19.763Z,0.50
2022-12-27T06:23:47.251Z,0.58
2022-12-27T06:26:26.616Z,0.52
2022-12-27T06:28:55.514Z,0.52
2022-12-27T06:31:23.019Z,0.53
2022-12-27T06:33:51.439Z,0.62
2022-12-27T06:36:23.808Z,0.56
2022-12-27T06:38:50.684Z,0.61
2022-12-27T06:41:18.883Z,0.59
2022-12-27T06:43:46.911Z,0.47
2022-12-27T06:46:17.724Z,0.43
2022-12-27T06:48:46.142Z,0.44
2022-12-27T06:51:13.823Z,0.40
2022-12-27T06:53:40.531Z,0.39
2022-12-27T06:56:12.451Z,0.32
2022-12-27T06:58:39.223Z,0.39
2022-12-27T07:01:20.627Z,0.50
2022-12-27T07:03:51.348Z,0.46
2022-12-27T07:06:18.535Z,0.59
2022-12-27T07:08:46.151Z,0.67
2022-12-27T07:11:13.924Z,0.65
2022-12-27T07:13:44.202Z,0.54
2022-12-27T07:16:13.161Z,0.64
2022-12-27T07:18:40.199Z,0.62
2022-12-27T07:21:15.401Z,0.61
2022-12-27T07:23:42.234Z,0.61
2022-12-27T07:26:12.829Z,0.63
2022-12-27T07:28:40.476Z,0.65
2022-12-27T07:31:12.729Z,0.65
2022-12-27T07:33:39.919Z,0.75
2022-12-27T07:36:10.512Z,0.72
2022-12-27T07:38:37.107Z,0.78
2022-12-27T07:41:03.949Z,0.77
2022-12-27T07:43:33.927Z,0.75
2022-12-27T07:46:14.961Z,0.78
2022-12-27T07:48:42.353Z,0.74
2022-12-27T07:51:09.737Z,0.84
2022-12-27T07:53:36.600Z,0.75
2022-12-27T07:56:12.251Z,0.71
2022-12-27T07:58:40.953Z,0.74
2022-12-27T08:01:08.774Z,0.82
2022-12-27T08:03:36.336Z,0.86
2022-12-27T08:06:03.576Z,0.97
2022-12-27T08:08:39.141Z,0.86
2022-12-27T08:11:06.503Z,0.84
2022-12-27T08:13:33.730Z,0.81
2022-12-27T08:16:00.940Z,0.83
2022-12-27T08:18:28.262Z,0.85
2022-12-27T08:20:55.170Z,0.83
2022-12-27T08:23:22.167Z,0.85
2022-12-27T08:25:49.240Z,0.81
2022-12-27T08:28:17.977Z,0.86
2022-12-27T08:30:47.158Z,0.82
2022-12-27T08:33:15.294Z,0.88
2022-12-27T08:35:54.347Z,0.85
2022-12-27T08:38:21.537Z,0.85
2022-12-27T08:40:48.119Z,0.83
2022-12-27T08:43:14.944Z,0.89
2022-12-27T08:45:42.055Z,0.83
2022-12-27T08:48:08.934Z,0.76
2022-12-27T08:50:35.840Z,0.73
2022-12-27T08:53:04.135Z,0.81
2022-12-27T08:55:31.089Z,0.89
2022-12-27T08:57:58.929Z,0.80
2022-12-27T09:00:26.573Z,0.87
2022-12-27T09:02:53.887Z,0.90
2022-12-27T09:05:22.091Z,0.95
2022-12-27T09:07:49.268Z,1.05
2022-12-27T09:10:16.009Z,1.01
2022-12-27T09:12:42.763Z,1.05
2022-12-27T09:15:09.787Z,1.10
2022-12-27T09:17:36.355Z,1.14
2022-12-27T09:20:03.425Z,1.17
2022-12-27T09:22:30.749Z,1.14
2022-12-27T09:24:57.426Z,1.16
2022-12-27T09:27:24.064Z,1.17
2022-12-27T09:29:50.676Z,1.30
2022-12-27T09:32:17.236Z,1.31
2022-12-27T09:34:43.885Z,1.39
2022-12-27T09:37:11.488Z,1.41
2022-12-27T09:39:38.219Z,1.62
2022-12-27T09:45:26.174Z,1.67
2022-12-27T09:48:03.498Z,1.70
2022-12-27T09:50:47.537Z,1.61
2022-12-27T09:53:24.821Z,1.46
2022-12-27T09:55:58.012Z,1.68
2022-12-27T09:58:36.550Z,1.72
2022-12-27T10:01:12.438Z,1.64
2022-12-27T10:03:39.042Z,1.62
2022-12-27T10:06:37.872Z,1.53
2022-12-27T10:09:16.229Z,1.33
2022-12-27T10:11:58.613Z,1.40
2022-12-27T10:14:47.167Z,1.36
2022-12-27T10:17:22.665Z,1.50
2022-12-27T10:20:04.660Z,1.35
2022-12-27T10:22:41.190Z,1.40
2022-12-27T10:25:13.369Z,1.35
2022-12-27T10:27:41.724Z,1.51
2022-12-27T10:30:29.464Z,1.58
2022-12-27T10:32:56.256Z,1.85
2022-12-27T10:35:24.270Z,1.85
2022-12-27T10:37:50.928Z,1.77
2022-12-27T10:40:20.281Z,1.80
2022-12-27T10:42:59.575Z,1.91
2022-12-27T10:45:39.381Z,1.66
2022-12-27T10:48:19.695Z,1.70
2022-12-27T10:51:05.254Z,1.92
2022-12-27T10:53:34.602Z,1.75
2022-12-27T10:56:16.747Z,1.67
2022-12-27T10:58:58.592Z,1.72
2022-12-27T11:01:30.328Z,1.89
2022-12-27T11:04:21.138Z,1.88
2022-12-27T11:07:13.599Z,2.06
2022-12-27T11:09:50.712Z,1.94
2022-12-27T11:12:28.663Z,1.86
2022-12-27T11:15:01.483Z,1.91
2022-12-27T11:17:49.041Z,2.00
2022-12-27T11:20:26.995Z,2.05
2022-12-27T11:22:59.702Z,2.08
2022-12-27T11:25:28.356Z,2.16
2022-12-27T11:28:02.023Z,2.14
2022-12-27T11:30:40.131Z,2.24
2022-12-27T11:33:46.576Z,2.02
2022-12-27T11:36:16.034Z,2.04
2022-12-27T11:38:44.921Z,1.91
2022-12-27T11:41:27.549Z,1.95
2022-12-27T11:44:26.634Z,2.19
2022-12-27T11:47:01.785Z,2.27
2022-12-27T11:49:37.902Z,2.27
2022-12-27T11:52:13.597Z,2.48
2022-12-27T11:55:17.676Z,2.49
2022-12-27T11:58:11.992Z,2.38
2022-12-27T12:01:02.061Z,2.39
2022-12-27T12:03:52.875Z,2.60
2022-12-27T12:06:56.351Z,2.70
2022-12-27T12:09:38.343Z,2.87
2022-12-27T12:12:42.515Z,2.83
2022-12-27T12:15:36.837Z,2.76
2022-12-27T12:18:26.383Z,2.75
2022-12-27T12:21:18.331Z,2.65
2022-12-27T12:24:09.999Z,2.63
2022-12-27T12:27:24.535Z,2.87
2022-12-27T12:30:13.544Z,3.11
2022-12-27T12:33:08.117Z,3.29
2022-12-27T12:35:46.546Z,3.43
2022-12-27T12:38:21.452Z,3.45
2022-12-27T12:41:06.710Z,3.39
2022-12-27T12:43:45.584Z,3.34
2022-12-27T12:46:32.826Z,3.31
2022-12-27T12:49:14.477Z,3.37
2022-12-27T12:51:46.828Z,3.32
2022-12-27T12:54:31.805Z,3.42
2022-12-27T12:57:28.608Z,3.36
2022-12-27T13:00:19.803Z,3.17
2022-12-27T13:03:20.417Z,3.14
2022-12-27T13:06:10.286Z,3.04
2022-12-27T13:08:39.513Z,2.99
2022-12-27T13:11:24.901Z,3.01
2022-12-27T13:14:02.342Z,3.22
2022-12-27T13:16:55.802Z,3.18
2022-12-27T13:19:50.185Z,3.27
2022-12-27T13:22:27.477Z,3.21
2022-12-27T13:25:15.210Z,3.10
2022-12-27T13:27:48.087Z,3.22
2022-12-27T13:30:22.903Z,3.17
2022-12-27T13:33:07.599Z,2.96
2022-12-27T13:35:48.901Z,3.08
2022-12-27T13:38:38.641Z,3.12
2022-12-27T13:41:11.014Z,2.95
2022-12-27T13:44:18.695Z,2.86
2022-12-27T13:46:47.999Z,2.81
2022-12-27T13:50:08.531Z,2.57
2022-12-27T13:53:00.019Z,2.51
2022-12-27T13:55:51.955Z,2.47
2022-12-27T13:58:36.437Z,2.42
2022-12-27T14:01:17.796Z,2.45
2022-12-27T14:03:44.356Z,2.33
2022-12-27T14:06:39.508Z,2.36
2022-12-27T14:09:16.409Z,2.36
2022-12-27T14:12:07.101Z,2.58
2022-12-27T14:14:38.053Z,2.55
2022-12-27T14:17:25.919Z,2.54
2022-12-27T14:20:07.492Z,2.58
2022-12-27T14:23:25.502Z,2.50
2022-12-27T14:26:08.195Z,2.40
2022-12-27T14:28:59.280Z,2.43
2022-12-27T14:31:53.977Z,2.36
2022-12-27T14:34:35.709Z,2.33
2022-12-27T14:37:19.660Z,2.38
2022-12-27T14:40:13.972Z,2.26
2022-12-27T14:43:16.030Z,2.23
2022-12-27T14:46:16.938Z,2.28
2022-12-27T14:48:55.564Z,2.30
2022-12-27T14:52:06.108Z,2.33
2022-12-27T14:54:48.345Z,2.32
2022-12-27T14:57:33.484Z,2.22
2022-12-27T15:00:15.869Z,2.26
2022-12-27T15:03:00.778Z,2.15
2022-12-27T15:05:48.508Z,2.26
2022-12-27T15:08:58.160Z,2.22
2022-12-27T15:11:48.939Z,2.17
2022-12-27T15:14:40.269Z,2.10
2022-12-27T15:17:18.632Z,2.14
2022-12-27T15:20:15.972Z,2.19
2022-12-27T15:23:13.249Z,2.13
2022-12-27T15:26:01.314Z,2.08
2022-12-27T15:29:05.111Z,1.84
2022-12-27T15:31:59.536Z,1.96
2022-12-27T15:35:03.484Z,2.03
2022-12-27T15:37:48.360Z,1.98
2022-12-27T15:40:32.994Z,1.98
2022-12-27T15:43:20.520Z,2.00
2022-12-27T15:46:36.061Z,1.88
2022-12-27T15:49:06.300Z,1.90
2022-12-27T15:51:44.707Z,1.87
2022-12-27T15:54:32.812Z,1.88
2022-12-27T15:57:17.220Z,1.88
2022-12-27T15:59:47.603Z,1.89
2022-12-27T16:02:53.648Z,1.89
2022-12-27T16:05:20.353Z,1.88
2022-12-27T16:07:51.020Z,1.89
2022-12-27T16:10:32.498Z,1.88
2022-12-27T16:12:59.219Z,1.81
2022-12-27T16:15:43.309Z,1.72
2022-12-27T16:18:31.106Z,1.64
2022-12-27T16:21:14.067Z,1.59
2022-12-27T16:23:46.487Z,1.64
2022-12-27T16:26:15.940Z,1.75
2022-12-27T16:28:51.838Z,1.94
2022-12-27T16:31:45.568Z,1.99
2022-12-27T16:34:28.513Z,1.97
2022-12-27T16:36:58.345Z,1.95
2022-12-27T16:39:49.899Z,1.96
2022-12-27T16:42:23.597Z,1.92
2022-12-27T16:45:02.869Z,1.83
2022-12-27T16:47:46.761Z,1.77
2022-12-27T16:50:19.361Z,1.73
2022-12-27T16:52:57.376Z,1.67
2022-12-27T16:55:40.704Z,1.64
2022-12-27T16:58:23.493Z,1.62
2022-12-27T17:00:52.697Z,1.56
2022-12-27T17:03:22.223Z,1.58
2022-12-27T17:06:30.209Z,1.45
2022-12-27T17:08:36.980Z,1.36
2022-12-27T17:11:23.865Z,1.29
2022-12-27T17:13:57.179Z,1.22
2022-12-27T17:16:28.478Z,1.23
2022-12-27T17:19:08.311Z,1.24
2022-12-27T17:21:37.758Z,1.22
2022-12-27T17:24:21.306Z,1.26
2022-12-27T17:27:12.533Z,1.17
2022-12-27T17:29:45.087Z,1.09
2022-12-27T17:32:36.481Z,1.04
2022-12-27T17:35:18.187Z,1.11
2022-12-27T17:38:06.165Z,1.08
2022-12-27T17:40:41.904Z,0.98
2022-12-27T17:43:54.978Z,0.93
2022-12-27T17:46:28.906Z,0.97
2022-12-27T17:48:58.087Z,1.00
2022-12-27T17:51:28.255Z,1.04
2022-12-27T17:54:14.312Z,1.05
2022-12-27T17:57:14.089Z,1.08
2022-12-27T17:59:46.651Z,1.22
2022-12-27T18:02:24.949Z,1.26
2022-12-27T18:04:57.055Z,1.27
2022-12-27T18:07:29.668Z,1.33
2022-12-27T18:10:17.104Z,1.42
2022-12-27T18:12:46.612Z,1.52
2022-12-27T18:15:17.032Z,1.58
2022-12-27T18:17:49.650Z,1.67
2022-12-27T18:20:29.723Z,1.68
2022-12-27T18:23:02.139Z,1.74
2022-12-27T18:25:40.497Z,1.79
2022-12-27T18:28:33.783Z,1.83
2022-12-27T18:31:00.753Z,1.80
2022-12-27T18:33:34.364Z,1.85
2022-12-27T18:36:03.187Z,1.85
2022-12-27T18:38:38.964Z,1.86
2022-12-27T18:41:12.548Z,1.84
2022-12-27T18:43:45.077Z,1.90
2022-12-27T18:46:29.983Z,1.85
2022-12-27T18:48:57.376Z,1.91
2022-12-27T18:51:37.652Z,1.89
2022-12-27T18:54:29.917Z,1.92
2022-12-27T18:56:57.725Z,1.89
2022-12-27T18:59:32.429Z,1.89
2022-12-27T19:02:23.284Z,1.87
2022-12-27T19:05:23.824Z,1.80
2022-12-27T19:08:10.997Z,1.84
2022-12-27T19:10:46.156Z,1.84
2022-12-27T19:13:34.120Z,1.82
2022-12-27T19:16:01.062Z,1.83
2022-12-27T19:18:31.626Z,1.81
2022-12-27T19:21:01.036Z,1.73
2022-12-27T19:23:36.548Z,1.76
2022-12-27T19:26:15.305Z,1.75
2022-12-27T19:28:45.518Z,1.79
2022-12-27T19:31:21.537Z,1.88
2022-12-27T19:33:52.122Z,1.92
2022-12-27T19:36:30.302Z,1.99
2022-12-27T19:38:57.383Z,1.89
2022-12-27T19:41:24.871Z,2.01
2022-12-27T19:43:51.719Z,1.96
2022-12-27T19:46:19.226Z,2.05
2022-12-27T19:49:07.687Z,2.02
2022-12-27T19:51:32.735Z,2.06
2022-12-27T19:53:59.402Z,2.02
2022-12-27T19:56:26.086Z,2.00
2022-12-27T19:58:52.760Z,2.02
2022-12-27T20:01:19.372Z,1.98
2022-12-27T20:03:46.188Z,2.08
2022-12-27T20:06:22.848Z,2.16
2022-12-27T20:08:53.289Z,2.10
2022-12-27T20:11:22.372Z,2.13
2022-12-27T20:13:50.127Z,2.07
2022-12-27T20:16:18.869Z,2.07
2022-12-27T20:18:46.227Z,2.00
2022-12-27T20:21:14.271Z,2.00
2022-12-27T20:23:41.092Z,1.97
2022-12-27T20:26:08.326Z,2.06
2022-12-27T20:28:34.887Z,2.05
2022-12-27T20:31:10.047Z,2.09
2022-12-27T20:33:36.872Z,2.07
2022-12-27T20:36:04.107Z,2.10
2022-12-27T20:38:31.619Z,2.12
2022-12-27T20:41:09.966Z,2.15
2022-12-27T20:43:36.793Z,2.17
2022-12-27T20:46:08.598Z,2.12
2022-12-27T20:48:40.471Z,2.14
2022-12-27T20:51:15.780Z,2.09
2022-12-27T20:53:42.467Z,2.02
2022-12-27T20:56:10.188Z,1.96
2022-12-27T20:58:36.972Z,2.00
2022-12-27T21:01:12.652Z,1.96
2022-12-27T21:03:39.801Z,1.96
2022-12-27T21:06:10.520Z,1.91
2022-12-27T21:08:45.541Z,1.97
2022-12-27T21:11:19.895Z,2.03
2022-12-27T21:13:47.753Z,2.06
2022-12-27T21:16:17.253Z,2.14
2022-12-27T21:18:43.922Z,2.15
2022-12-27T21:21:18.986Z,2.24
2022-12-27T21:23:46.307Z,2.25
2022-12-27T21:26:14.586Z,2.28
2022-12-27T21:28:42.268Z,2.35
2022-12-27T21:31:10.059Z,2.39
2022-12-27T21:33:36.746Z,2.38
2022-12-27T21:36:07.251Z,2.47
2022-12-27T21:38:34.126Z,2.45
2022-12-27T21:41:22.046Z,2.44
2022-12-27T21:43:49.563Z,2.46
2022-12-27T21:46:29.069Z,2.47
2022-12-27T21:49:01.828Z,2.46
2022-12-27T21:51:30.104Z,2.42
2022-12-27T21:53:57.373Z,2.45
2022-12-27T21:56:24.781Z,2.42
2022-12-27T21:58:51.708Z,2.44
2022-12-27T22:01:20.763Z,2.44
2022-12-27T22:03:50.110Z,2.41
2022-12-27T22:06:17.995Z,2.39
2022-12-27T22:08:46.984Z,2.41
2022-12-27T22:11:14.459Z,2.40
2022-12-27T22:13:42.479Z,2.47
2022-12-27T22:16:16.864Z,2.43
2022-12-27T22:18:45.100Z,2.52
2022-12-27T22:21:14.819Z,2.54
2022-12-27T22:23:47.052Z,2.57
2022-12-27T22:26:19.693Z,2.58
2022-12-27T22:28:46.974Z,2.55
2022-12-27T22:31:15.805Z,2.60
2022-12-27T22:33:42.471Z,2.58
2022-12-27T22:36:12.731Z,2.54
2022-12-27T22:38:40.697Z,2.57
2022-12-27T22:41:10.327Z,2.58
2022-12-27T22:43:36.863Z,2.57
2022-12-27T22:46:13.434Z,2.62
2022-12-27T22:48:40.959Z,2.61
2022-12-27T22:51:13.262Z,2.61
2022-12-27T22:53:40.583Z,2.69
2022-12-27T22:56:14.575Z,2.69
2022-12-27T22:58:41.338Z,2.62
2022-12-27T23:01:22.297Z,2.64
2022-12-27T23:03:49.719Z,2.61
2022-12-27T23:06:17.081Z,2.67
2022-12-27T23:08:44.773Z,2.64
2022-12-27T23:11:20.632Z,2.77
2022-12-27T23:13:48.925Z,2.73
2022-12-27T23:16:15.658Z,2.71
2022-12-27T23:18:42.312Z,2.72
2022-12-27T23:21:21.092Z,2.73
2022-12-27T23:23:53.513Z,2.73
2022-12-27T23:26:22.627Z,2.84
2022-12-27T23:28:51.372Z,2.83
2022-12-27T23:31:19.925Z,2.80
2022-12-27T23:33:46.697Z,2.84
2022-12-27T23:36:14.536Z,2.78
2022-12-27T23:38:42.349Z,2.90
2022-12-27T23:41:18.620Z,2.85
2022-12-27T23:43:54.464Z,2.84
2022-12-27T23:46:23.962Z,2.91
2022-12-27T23:48:51.288Z,2.88
2022-12-27T23:51:18.595Z,2.82
2022-12-27T23:53:45.401Z,2.90
2022-12-27T23:56:21.264Z,2.89
2022-12-27T23:58:48.753Z,2.96
